• Join FlightAware (Why Join?)
  • Login
  • US Flag 
08:01PM EDT


 

Airport Tracker/Info


-or-


 

Live Flight TrackerFlight Track Log ✈ DAL6140 ✈ 23-Apr-2013 ✈ CYUL - KLGA

Flight Track Log - Related Links

Times and Time Zones

All times are in EDT time to prevent confusion due to time zone crossing. See the DAL6140 flight status page for this flight to view local times or setup timezone preferences in your user account.

Time Position Orientation Groundspeed Altitude Reporting Facility
EDT Latitude Longitude Course Direction KTS MPH feet Rate Location/Type
06:12PM 45.4000 -73.8000 226° Southwest 220 253 4,400  Level Montreal Center
06:13PM 45.3500 -73.8500 215° Southwest 250 288 7,000 2,940 Climbing Montreal Center
06:14PM 45.1037 -73.9973 207° Southwest  Level FlightAware Approximate
06:14PM 45.2667 -73.8667 188° South 260 299 10,300  Level Montreal Center
06:15PM 45.0123 -74.0627 207° Southwest  Level FlightAware Approximate
06:15PM 45.2000 -73.9167 208° Southwest 290 334 12,100  Level Montreal Center
06:16PM 44.9307 -74.0875 189° South  Level FlightAware Approximate
06:16PM 45.1167 -73.9667 203° Southwest 320 368 13,900  Level Montreal Center
06:17PM 44.8462 -74.1056 189° South  Level FlightAware Approximate
06:17PM 45.0333 -74.0500 215° Southwest 340 391 15,800  Level Montreal Center
06:18PM 44.9500 -74.0833 196° South 350 403 17,500 1,680 Climbing Montreal Center
06:19PM 44.8333 -74.1000 186° South 360 414 19,200 1,500 Climbing Montreal Center
06:19PM 44.8283 -74.1200 251° West 356 410 19,700 1,740 Climbing Boston Center
06:20PM 44.7133 -74.1431 188° South 374 430 21,700 1,860 Climbing Boston Center
06:21PM 44.6075 -74.1225 172° South 381 438 23,500 1,620 Climbing Boston Center
06:22PM 44.4994 -74.0992 171° South 392 451 25,000 1,260 Climbing Boston Center
06:23PM 44.3850 -74.0872 176° South 405 466 26,000 480 Climbing Boston Center
06:24PM 44.2667 -74.0636 172° South 417 480 26,000  Level Boston Center
06:25PM 44.1397 -74.0397 172° South 446 513 26,000  Level Boston Center
06:26PM 44.0131 -74.0192 173° South 466 536 26,000  Level Boston Center
06:27PM 43.8986 -73.9989 173° South 466 536 26,000  Level Boston Center
06:28PM 43.7761 -73.9756 172° South 460 529 26,000  Level Boston Center
06:29PM 43.6367 -73.9547 174° South 460 529 26,000  Level Boston Center
06:30PM 43.5119 -73.9344 173° South 460 529 26,000 -360 Level Boston Center
06:31PM 43.4119 -73.9150 172° South 460 529 25,300 -1,080 Descending Boston Center
06:32PM 43.2811 -73.8947 174° South 454 522 23,900 -660 Descending Boston Center
06:33PM 43.1606 -73.8717 172° South 442 509 24,000 -960 Climbing Boston Center
06:34PM 43.0461 -73.8550 174° South 436 502 22,000 -1,980 Descending Boston Center
06:35PM 42.9336 -73.8381 174° South 425 489 20,100 -1,020 Descending Boston Center
06:36PM 42.8214 -73.8186 173° South 414 476 20,000 -60 Descending Boston Center
06:37PM 42.7133 -73.7964 171° South 401 461 20,000 -60 Level Boston Center
06:38PM 42.5947 -73.7742 172° South 407 468 19,900 -540 Descending Boston Center
06:40PM 42.4992 -73.7522 170° South 384 442 18,900 -900 Descending Boston Center
06:41PM 42.3869 -73.7303 172° South 347 399 18,000 -480 Descending Boston Center
06:42PM 42.3058 -73.7144 172° South 337 388 18,000  Level Boston Center
06:43PM 42.2017 -73.6928 171° South 337 388 18,000  Level Boston Center
06:44PM 42.1081 -73.6742 172° South 337 388 18,000  Level Boston Center
06:45PM 42.0167 -73.6528 170° South 337 388 18,000  Level Boston Center
06:46PM 41.9356 -73.6344 170° South 337 388 18,000 -420 Level Boston Center
06:47PM 41.8336 -73.6158 172° South 337 388 17,200 -540 Descending Boston Center
06:48PM 41.7625 -73.6425 196° South 282 325 17,000 -120 Descending Boston Center
06:49PM 41.7136 -73.7222 231° Southwest 261 300 17,000 -600 Level Boston Center
06:50PM 41.6817 -73.7908 238° Southwest 253 291 15,800 -1,020 Descending Boston Center
06:51PM 41.6164 -73.8339 206° Southwest 245 282 15,000 -420 Descending Boston Center
06:52PM 41.5558 -73.8522 193° South 248 285 15,000  Level Boston Center
06:53PM 41.4786 -73.8697 190° South 259 298 15,000  Level Boston Center
06:54PM 41.4136 -73.8906 194° South 259 298 15,000 -360 Level Boston Center
06:55PM 41.4125 -73.9736 269° West 193 222 14,300 -900 Descending Boston Center
06:56PM 41.4814 -73.9781 357° North 153 176 13,100 -600 Descending Boston Center
06:57PM 41.5517 -74.0019 346° North 215 247 13,000 -120 Descending Boston Center
06:58PM 41.6000 -73.9667 29° Northeast 274 315 12,900 -660 Descending New York TRACON
06:59PM 41.5333 -73.9000 143° Southeast 313 360 11,800 -1,320 Descending New York TRACON
07:00PM 41.4500 -73.9000 180° South 291 335 10,300 -1,500 Descending New York TRACON
07:01PM 41.3833 -73.8667 159° South 295 339 8,800 -1,560 Descending New York TRACON
07:02PM 41.3167 -73.7833 137° Southeast 276 318 7,100 -1,560 Descending New York TRACON
07:03PM 41.2667 -73.7333 143° Southeast 257 296 5,700 -1,620 Descending New York TRACON
07:04PM 41.2000 -73.6833 151° Southeast 257 296 4,100 -900 Descending New York TRACON
07:05PM 41.1500 -73.6167 135° Southeast 258 297 3,900 -120 Descending New York TRACON
07:06PM 41.0833 -73.6333 191° South 279 321 3,900  Level New York TRACON
07:07PM 41.0167 -73.6833 210° Southwest 270 311 3,900  Level New York TRACON
07:08PM 40.9667 -73.7500 225° Southwest 276 318 3,900  Level New York TRACON